Íslenskir flugvellir

Veldu flugvelli í þeirri röð sem þeir eiga að birtast og styddu á hnappinn

Uppfært síðast 02.07.2020 - kl. 16:51

SIGMET síðustu 6 klst.

Engin SIGMET skeyti bárust síðustu 6 klst.

Egilsstaðir

METAR síðustu 3 klst

TímiSkeyti
2020-07-02 16.00METAR BIEG 021600Z 36013KT 9999 FEW030 11/05 Q1007
2020-07-02 15.00METAR BIEG 021500Z 01012KT 9999 FEW030 12/05 Q1007
2020-07-02 14.00METAR BIEG 021400Z 01010KT 9999 FEW030 12/04 Q1007

TAF

TAFBIEG2020-07-02 16.16Z02181801012KT 9999 SCT018 TX13/0315Z TN01/0304Z BECMG 0223/0301 02004KT PROB40 0300/0309 0500 FG VV002 BECMG 0312/0314 01011KT

Allur vindur er réttvísandi bæði í Metar og frá sjálfvirkum veðurstöðvum




Aðrir tengdir vefir



Þetta vefsvæði byggir á Eplica